createdAt,value
2019-05-18T00:01:12.991Z,69.70
2019-05-18T00:03:44.948Z,69.60
2019-05-18T00:06:16.309Z,69.10
2019-05-18T00:08:48.092Z,68.70
2019-05-18T00:11:19.844Z,68.70
2019-05-18T00:13:51.893Z,68.50
2019-05-18T00:16:23.573Z,68.20
2019-05-18T00:18:55.436Z,68.00
2019-05-18T00:21:27.303Z,67.80
2019-05-18T00:23:58.871Z,67.60
2019-05-18T00:26:30.398Z,67.20
2019-05-18T00:29:02.276Z,67.10
2019-05-18T00:31:33.526Z,66.70
2019-05-18T00:34:05.093Z,66.50
2019-05-18T00:36:36.675Z,66.30
2019-05-18T00:39:09.509Z,66.00
2019-05-18T00:41:41.268Z,65.80
2019-05-18T00:44:12.901Z,65.60
2019-05-18T00:46:44.494Z,65.40
2019-05-18T00:49:16.277Z,65.20
2019-05-18T00:51:48.111Z,65.10
2019-05-18T00:54:19.726Z,65.70
2019-05-18T00:56:51.333Z,64.80
2019-05-18T00:59:22.908Z,64.50
2019-05-18T01:01:54.650Z,64.40
2019-05-18T01:04:26.027Z,64.30
2019-05-18T01:06:57.587Z,64.10
2019-05-18T01:09:29.331Z,63.90
2019-05-18T01:12:00.706Z,63.70
2019-05-18T01:14:32.286Z,63.50
2019-05-18T01:17:04.007Z,63.60
2019-05-18T01:19:35.864Z,63.40
2019-05-18T01:22:07.306Z,63.10
2019-05-18T01:24:41.586Z,63.20
2019-05-18T01:27:13.218Z,62.90
2019-05-18T01:29:45.064Z,62.90
2019-05-18T01:32:16.575Z,63.20
2019-05-18T01:34:48.203Z,62.00
2019-05-18T01:37:19.735Z,61.70
2019-05-18T01:39:51.363Z,61.50
2019-05-18T01:42:22.850Z,61.50
2019-05-18T01:44:54.169Z,61.10
2019-05-18T01:47:25.810Z,61.50
2019-05-18T01:49:57.747Z,60.80
2019-05-18T01:52:29.356Z,60.60
2019-05-18T01:55:01.075Z,60.40
2019-05-18T01:57:32.624Z,60.10
2019-05-18T02:00:04.269Z,60.10
2019-05-18T02:02:36.199Z,60.00
2019-05-18T02:05:09.110Z,59.90
2019-05-18T02:07:40.968Z,59.80
2019-05-18T02:10:12.388Z,59.80
2019-05-18T02:12:43.981Z,59.70
2019-05-18T02:15:15.936Z,60.00
2019-05-18T02:17:47.458Z,59.50
2019-05-18T02:20:18.940Z,59.10
2019-05-18T02:22:50.910Z,59.00
2019-05-18T02:25:22.273Z,58.90
2019-05-18T02:27:54.275Z,58.80
2019-05-18T02:30:26.196Z,58.60
2019-05-18T02:32:57.825Z,58.60
2019-05-18T02:35:29.225Z,58.50
2019-05-18T02:38:17.657Z,58.50
2019-05-18T02:40:49.228Z,58.40
2019-05-18T02:43:20.923Z,58.00
2019-05-18T02:45:52.416Z,58.00
2019-05-18T02:48:23.793Z,57.90
2019-05-18T02:50:55.586Z,57.70
2019-05-18T02:53:27.224Z,57.60
2019-05-18T02:55:58.664Z,57.60
2019-05-18T02:58:30.328Z,57.50
2019-05-18T03:01:01.966Z,57.10
2019-05-18T03:03:33.553Z,57.40
2019-05-18T03:06:05.279Z,57.30
2019-05-18T03:08:36.797Z,57.10
2019-05-18T03:11:10.001Z,57.20
2019-05-18T03:13:41.716Z,56.80
2019-05-18T03:16:13.379Z,56.90
2019-05-18T03:18:45.137Z,56.70
2019-05-18T03:21:16.490Z,56.40
2019-05-18T03:23:47.975Z,56.80
2019-05-18T03:26:19.463Z,56.10
2019-05-18T03:28:51.438Z,55.90
2019-05-18T03:31:22.938Z,56.10
2019-05-18T03:33:54.498Z,55.40
2019-05-18T03:36:26.229Z,55.90
2019-05-18T03:38:57.807Z,55.20
2019-05-18T03:41:29.374Z,55.50
2019-05-18T03:44:01.239Z,55.30
2019-05-18T03:46:32.966Z,55.20
2019-05-18T03:49:04.505Z,55.10
2019-05-18T03:51:36.314Z,55.00
2019-05-18T03:54:07.945Z,55.20
2019-05-18T03:56:39.341Z,55.30
2019-05-18T03:59:11.351Z,54.60
2019-05-18T04:01:42.890Z,54.70
2019-05-18T04:04:18.329Z,54.70
2019-05-18T04:06:47.795Z,54.60
2019-05-18T04:09:19.436Z,54.40
2019-05-18T04:11:50.743Z,54.40
2019-05-18T04:14:22.698Z,54.50
2019-05-18T04:16:54.522Z,54.20
2019-05-18T04:19:44.331Z,54.00
2019-05-18T04:21:59.264Z,54.00
2019-05-18T04:24:31.210Z,53.20
2019-05-18T04:27:03.074Z,53.60
2019-05-18T04:29:37.189Z,53.60
2019-05-18T04:32:08.847Z,53.60
2019-05-18T04:34:41.049Z,53.40
2019-05-18T04:37:12.518Z,53.30
2019-05-18T04:39:44.355Z,53.20
2019-05-18T04:42:16.138Z,53.30
2019-05-18T04:44:47.613Z,53.20
2019-05-18T04:47:19.334Z,53.00
2019-05-18T04:50:04.634Z,54.10
2019-05-18T04:52:24.268Z,52.90
2019-05-18T04:54:55.880Z,52.70
2019-05-18T04:57:27.513Z,52.40
2019-05-18T04:59:59.166Z,52.70
2019-05-18T05:02:30.445Z,53.10
2019-05-18T05:05:02.087Z,52.60
2019-05-18T05:07:34.015Z,52.30
2019-05-18T05:10:06.604Z,52.20
2019-05-18T05:12:38.361Z,52.30
2019-05-18T05:15:09.810Z,52.40
2019-05-18T05:17:41.586Z,52.30
2019-05-18T05:20:19.571Z,51.80
2019-05-18T05:22:46.360Z,51.60
2019-05-18T05:25:17.997Z,51.70
2019-05-18T05:27:49.964Z,51.50
2019-05-18T05:30:47.817Z,51.20
2019-05-18T05:33:19.810Z,51.30
2019-05-18T05:35:51.303Z,51.60
2019-05-18T05:38:23.143Z,51.10
2019-05-18T05:40:54.839Z,50.40
2019-05-18T05:43:27.272Z,50.30
2019-05-18T05:45:58.590Z,50.30
2019-05-18T05:48:30.468Z,49.50
2019-05-18T05:51:02.100Z,49.80
2019-05-18T05:53:33.526Z,50.10
2019-05-18T05:56:05.268Z,50.40
2019-05-18T05:58:36.794Z,50.10
2019-05-18T06:01:08.521Z,50.30
2019-05-18T06:03:40.574Z,49.90
2019-05-18T06:06:11.987Z,49.50
2019-05-18T06:08:43.791Z,49.50
2019-05-18T06:11:15.329Z,49.50
2019-05-18T06:13:47.938Z,49.40
2019-05-18T06:16:19.729Z,49.40
2019-05-18T06:18:51.525Z,48.30
2019-05-18T06:21:22.903Z,49.10
2019-05-18T06:23:54.258Z,49.50
2019-05-18T06:26:25.945Z,49.50
2019-05-18T06:28:57.374Z,49.60
2019-05-18T06:31:29.156Z,49.90
2019-05-18T06:34:01.210Z,49.50
2019-05-18T06:36:33.038Z,49.80
2019-05-18T06:39:05.762Z,49.20
2019-05-18T06:41:37.322Z,49.50
2019-05-18T06:44:09.032Z,48.90
2019-05-18T06:46:40.870Z,49.00
2019-05-18T06:49:13.218Z,48.40
2019-05-18T06:51:45.073Z,48.40
2019-05-18T06:54:16.841Z,48.40
2019-05-18T06:56:48.699Z,48.10
2019-05-18T06:59:20.424Z,48.10
2019-05-18T07:01:51.994Z,48.20
2019-05-18T07:04:23.325Z,48.40
2019-05-18T07:06:55.193Z,48.40
2019-05-18T07:09:26.861Z,48.40
2019-05-18T07:11:58.597Z,48.80
2019-05-18T07:14:30.210Z,48.50
2019-05-18T07:17:01.962Z,48.30
2019-05-18T07:19:33.479Z,48.00
2019-05-18T07:22:04.975Z,47.80
2019-05-18T07:24:36.563Z,48.30
2019-05-18T07:27:08.054Z,48.30
2019-05-18T07:29:39.982Z,47.90
2019-05-18T07:32:11.813Z,48.00
2019-05-18T07:34:43.488Z,47.90
2019-05-18T07:37:17.340Z,47.80
2019-05-18T07:39:49.108Z,47.60
2019-05-18T07:42:20.664Z,47.90
2019-05-18T07:44:52.469Z,47.60
2019-05-18T07:47:24.321Z,47.60
2019-05-18T07:49:55.994Z,47.70
2019-05-18T07:52:27.627Z,47.30
2019-05-18T07:54:59.121Z,46.40
2019-05-18T07:57:30.867Z,47.20
2019-05-18T08:00:02.385Z,47.40
2019-05-18T08:02:33.810Z,47.50
2019-05-18T08:05:05.555Z,47.40
2019-05-18T08:07:37.050Z,47.50
2019-05-18T08:10:09.279Z,48.10
2019-05-18T08:12:40.668Z,47.80
2019-05-18T08:15:12.301Z,47.80
2019-05-18T08:17:44.369Z,47.70
2019-05-18T08:20:15.835Z,47.50
2019-05-18T08:22:47.262Z,47.50
2019-05-18T08:25:19.046Z,47.50
2019-05-18T08:27:50.495Z,47.60
2019-05-18T08:30:21.954Z,47.60
2019-05-18T08:32:53.804Z,47.60
2019-05-18T08:35:27.088Z,47.50
2019-05-18T08:37:58.278Z,47.30
2019-05-18T08:40:30.365Z,47.50
2019-05-18T08:43:02.375Z,47.40
2019-05-18T08:45:34.129Z,47.20
2019-05-18T08:48:05.817Z,47.30
2019-05-18T08:50:37.360Z,46.90
2019-05-18T08:53:08.869Z,47.10
2019-05-18T08:55:40.924Z,47.10
2019-05-18T08:58:12.523Z,47.50
2019-05-18T09:00:44.132Z,47.30
2019-05-18T09:03:16.265Z,46.60
2019-05-18T09:05:47.918Z,47.00
2019-05-18T09:08:19.321Z,47.30
2019-05-18T09:10:51.233Z,47.10
2019-05-18T09:13:22.890Z,47.10
2019-05-18T09:15:54.718Z,47.10
2019-05-18T09:18:26.395Z,47.30
2019-05-18T09:20:58.216Z,48.00
2019-05-18T09:23:30.146Z,47.00
2019-05-18T09:26:01.908Z,47.10
2019-05-18T09:28:33.685Z,47.10
2019-05-18T09:31:05.283Z,47.30
2019-05-18T09:33:37.147Z,47.30
2019-05-18T09:36:08.794Z,47.30
2019-05-18T09:38:40.291Z,48.00
2019-05-18T09:41:14.756Z,47.40
2019-05-18T09:43:49.314Z,47.30
2019-05-18T09:46:21.031Z,47.20
2019-05-18T09:48:52.542Z,47.40
2019-05-18T09:51:24.370Z,47.40
2019-05-18T09:53:55.610Z,46.80
2019-05-18T09:56:27.339Z,47.30
2019-05-18T09:58:59.082Z,47.40
2019-05-18T10:01:30.683Z,47.50
2019-05-18T10:04:02.236Z,47.50
2019-05-18T10:06:34.201Z,47.40
2019-05-18T10:09:07.278Z,47.00
2019-05-18T10:11:39.079Z,47.40
2019-05-18T10:14:10.734Z,47.60
2019-05-18T10:16:42.777Z,47.30
2019-05-18T10:19:14.415Z,47.60
2019-05-18T10:21:46.374Z,47.60
2019-05-18T10:24:18.834Z,47.50
2019-05-18T10:26:50.740Z,47.50
2019-05-18T10:29:22.180Z,47.50
2019-05-18T10:31:54.760Z,47.50
2019-05-18T10:34:26.779Z,47.60
2019-05-18T10:36:58.207Z,47.50
2019-05-18T10:39:30.091Z,47.70
2019-05-18T10:42:01.683Z,47.70
2019-05-18T10:44:35.924Z,47.70
2019-05-18T10:47:07.822Z,47.80
2019-05-18T10:49:39.288Z,47.70
2019-05-18T10:52:11.364Z,47.80
2019-05-18T10:54:42.994Z,48.00
2019-05-18T10:57:15.039Z,48.00
2019-05-18T10:59:46.823Z,47.90
2019-05-18T11:02:18.879Z,47.90
2019-05-18T11:04:50.337Z,47.90
2019-05-18T11:07:22.192Z,48.00
2019-05-18T11:09:53.882Z,48.10
2019-05-18T11:12:25.726Z,48.10
2019-05-18T11:14:57.339Z,48.30
2019-05-18T11:17:29.325Z,48.30
2019-05-18T11:20:00.905Z,48.40
2019-05-18T11:22:32.575Z,48.70
2019-05-18T11:25:04.414Z,48.80
2019-05-18T11:27:36.076Z,48.80
2019-05-18T11:30:49.770Z,49.00
2019-05-18T11:33:21.544Z,49.10
2019-05-18T11:35:53.610Z,49.10
2019-05-18T11:38:25.108Z,49.30
2019-05-18T11:40:56.771Z,49.50
2019-05-18T11:43:28.703Z,49.50
2019-05-18T11:46:00.567Z,49.70
2019-05-18T11:48:32.515Z,49.80
2019-05-18T11:51:04.292Z,49.80
2019-05-18T11:53:36.098Z,50.00
2019-05-18T11:56:07.743Z,50.10
2019-05-18T11:58:39.580Z,50.20
2019-05-18T12:01:11.208Z,50.20
2019-05-18T12:03:42.621Z,50.30
2019-05-18T12:06:14.378Z,50.40
2019-05-18T12:08:46.035Z,50.50
2019-05-18T12:11:17.954Z,50.60
2019-05-18T12:13:49.739Z,50.60
2019-05-18T12:16:21.536Z,50.80
2019-05-18T12:18:53.195Z,50.80
2019-05-18T12:21:25.018Z,51.40
2019-05-18T12:23:56.568Z,51.00
2019-05-18T12:26:28.251Z,51.00
2019-05-18T12:29:00.140Z,51.00
2019-05-18T12:31:31.787Z,51.10
2019-05-18T12:34:03.742Z,51.20
2019-05-18T12:36:35.449Z,51.10
2019-05-18T12:39:08.376Z,51.20
2019-05-18T12:41:40.131Z,51.20
2019-05-18T12:44:11.761Z,51.30
2019-05-18T12:46:43.733Z,51.30
2019-05-18T12:49:15.260Z,51.40
2019-05-18T12:51:46.868Z,51.50
2019-05-18T12:54:29.329Z,51.40
2019-05-18T12:56:51.750Z,51.50
2019-05-18T12:59:23.520Z,51.50
2019-05-18T13:01:55.153Z,51.60
2019-05-18T13:04:27.114Z,51.90
2019-05-18T13:06:58.860Z,51.60
2019-05-18T13:09:30.790Z,51.60
2019-05-18T13:12:02.374Z,51.70
2019-05-18T13:14:34.212Z,51.70
2019-05-18T13:17:06.030Z,51.70
2019-05-18T13:19:38.099Z,51.60
2019-05-18T13:22:09.940Z,51.70
2019-05-18T13:24:45.095Z,51.70
2019-05-18T13:27:14.746Z,51.80
2019-05-18T13:29:46.682Z,51.80
2019-05-18T13:32:18.203Z,51.90
2019-05-18T13:34:50.111Z,51.90
2019-05-18T13:37:21.757Z,52.00
2019-05-18T13:39:53.690Z,52.00
2019-05-18T13:42:25.479Z,52.00
2019-05-18T13:44:57.293Z,52.00
2019-05-18T13:47:31.276Z,52.00
2019-05-18T13:50:03.042Z,52.60
2019-05-18T13:52:34.578Z,52.10
2019-05-18T13:55:08.864Z,52.20
2019-05-18T13:57:39.647Z,52.30
2019-05-18T14:00:11.581Z,52.20
2019-05-18T14:02:43.419Z,52.20
2019-05-18T14:05:15.362Z,52.20
2019-05-18T14:07:47.163Z,52.10
2019-05-18T14:10:18.766Z,52.20
2019-05-18T14:12:50.732Z,52.20
2019-05-18T14:15:23.117Z,52.30
2019-05-18T14:17:55.094Z,52.30
2019-05-18T14:20:26.746Z,52.30
2019-05-18T14:22:58.559Z,52.40
2019-05-18T14:25:30.534Z,52.40
2019-05-18T14:28:02.137Z,52.30
2019-05-18T14:30:33.976Z,52.40
2019-05-18T14:33:05.551Z,52.40
2019-05-18T14:35:37.172Z,52.40
2019-05-18T14:38:08.955Z,52.50
2019-05-18T14:40:40.693Z,52.40
2019-05-18T14:43:13.371Z,52.50
2019-05-18T14:45:44.980Z,52.50
2019-05-18T14:48:16.935Z,52.60
2019-05-18T14:50:48.541Z,52.60
2019-05-18T14:53:20.162Z,52.70
2019-05-18T14:55:52.003Z,52.70
2019-05-18T14:58:23.823Z,52.70
2019-05-18T15:00:55.471Z,52.70
2019-05-18T15:03:27.461Z,52.80
2019-05-18T15:05:59.023Z,52.80
2019-05-18T15:08:30.778Z,52.80
2019-05-18T15:11:02.532Z,52.80
2019-05-18T15:13:34.113Z,52.90
2019-05-18T15:16:05.554Z,52.90
2019-05-18T15:18:37.359Z,52.90
2019-05-18T15:21:09.167Z,53.00
2019-05-18T15:23:41.001Z,53.00
2019-05-18T15:26:12.596Z,52.90
2019-05-18T15:28:44.131Z,52.90
2019-05-18T15:31:16.128Z,53.00
2019-05-18T15:33:47.704Z,53.10
2019-05-18T15:36:19.076Z,53.30
2019-05-18T15:38:51.098Z,53.10
2019-05-18T15:41:22.854Z,53.60
2019-05-18T15:43:54.849Z,53.60
2019-05-18T15:46:26.224Z,53.70
2019-05-18T15:48:58.024Z,53.80
2019-05-18T15:51:30.146Z,53.90
2019-05-18T15:54:01.868Z,53.90
2019-05-18T15:56:33.375Z,53.90
2019-05-18T15:59:05.189Z,54.10
2019-05-18T16:01:36.951Z,54.20
2019-05-18T16:04:08.641Z,54.20
2019-05-18T16:06:40.588Z,54.20
2019-05-18T16:09:12.153Z,54.30
2019-05-18T16:11:43.462Z,54.20
2019-05-18T16:14:15.046Z,54.40
2019-05-18T16:16:46.526Z,54.40
2019-05-18T16:19:18.253Z,54.50
2019-05-18T16:21:50.043Z,54.50
2019-05-18T16:24:21.582Z,54.50
2019-05-18T16:26:53.566Z,54.60
2019-05-18T16:29:24.974Z,54.70
2019-05-18T16:31:56.466Z,54.70
2019-05-18T16:34:28.414Z,54.80
2019-05-18T16:37:00.853Z,54.80
2019-05-18T16:39:32.810Z,54.80
2019-05-18T16:42:04.440Z,54.90
2019-05-18T16:44:36.162Z,55.00
2019-05-18T16:47:07.585Z,55.10
2019-05-18T16:49:39.307Z,55.00
2019-05-18T16:52:11.282Z,55.10
2019-05-18T16:54:45.173Z,55.20
2019-05-18T16:57:17.049Z,55.20
2019-05-18T16:59:48.782Z,55.20
2019-05-18T17:02:31.158Z,55.40
2019-05-18T17:04:53.672Z,55.40
2019-05-18T17:07:25.566Z,55.50
2019-05-18T17:09:57.174Z,55.50
2019-05-18T17:12:28.806Z,55.50
2019-05-18T17:15:00.313Z,55.60
2019-05-18T17:17:35.220Z,55.60
2019-05-18T17:20:05.166Z,55.60
2019-05-18T17:22:36.932Z,55.60
2019-05-18T17:25:08.858Z,56.30
2019-05-18T17:27:40.697Z,56.10
2019-05-18T17:30:50.886Z,55.70
2019-05-18T17:33:22.878Z,55.70
2019-05-18T17:36:00.279Z,56.00
2019-05-18T17:38:28.110Z,55.60
2019-05-18T17:40:59.865Z,55.50
2019-05-18T17:43:31.945Z,55.60
2019-05-18T17:46:03.714Z,55.60
2019-05-18T17:48:35.789Z,55.60
2019-05-18T17:51:07.610Z,55.60
2019-05-18T17:53:39.418Z,55.70
2019-05-18T17:56:11.533Z,55.80
2019-05-18T17:58:43.554Z,55.80
2019-05-18T18:01:15.191Z,55.80
2019-05-18T18:03:47.147Z,55.80
2019-05-18T18:06:18.894Z,55.90
2019-05-18T18:08:50.738Z,55.90
2019-05-18T18:11:22.167Z,55.90
2019-05-18T18:13:53.714Z,56.00
2019-05-18T18:16:25.773Z,56.10
2019-05-18T18:18:57.481Z,56.00
2019-05-18T18:21:29.193Z,56.20
2019-05-18T18:24:00.757Z,56.10
2019-05-18T18:26:32.391Z,56.20
2019-05-18T18:29:04.383Z,56.20
2019-05-18T18:31:35.982Z,56.30
2019-05-18T18:34:07.677Z,56.30
2019-05-18T18:36:39.162Z,56.40
2019-05-18T18:39:11.093Z,56.50
2019-05-18T18:41:42.763Z,57.20
2019-05-18T18:44:14.240Z,56.60
2019-05-18T18:46:46.288Z,56.60
2019-05-18T18:49:17.756Z,56.70
2019-05-18T18:51:49.500Z,56.80
2019-05-18T18:54:21.362Z,56.90
2019-05-18T18:56:52.922Z,56.80
2019-05-18T18:59:25.116Z,56.90
2019-05-18T19:01:56.750Z,57.00
2019-05-18T19:04:28.507Z,57.10
2019-05-18T19:06:59.980Z,56.90
2019-05-18T19:09:31.708Z,57.00
2019-05-18T19:12:03.137Z,57.20
2019-05-18T19:14:34.763Z,57.20
2019-05-18T19:17:06.582Z,57.30
2019-05-18T19:19:40.086Z,57.30
2019-05-18T19:22:11.251Z,57.30
2019-05-18T19:24:42.896Z,57.40
2019-05-18T19:27:14.795Z,57.30
2019-05-18T19:29:46.645Z,57.40
2019-05-18T19:32:18.577Z,57.60
2019-05-18T19:34:50.240Z,57.50
2019-05-18T19:37:22.038Z,57.50
2019-05-18T19:39:53.570Z,57.40
2019-05-18T19:42:25.352Z,57.60
2019-05-18T19:44:57.781Z,58.30
2019-05-18T19:47:29.369Z,57.70
2019-05-18T19:50:01.478Z,57.70
2019-05-18T19:52:33.116Z,57.70
2019-05-18T19:55:04.887Z,57.80
2019-05-18T19:57:36.512Z,57.90
2019-05-18T20:00:11.054Z,57.20
2019-05-18T20:02:42.578Z,57.90
2019-05-18T20:05:14.278Z,57.90
2019-05-18T20:07:46.195Z,57.90
2019-05-18T20:10:17.901Z,58.10
2019-05-18T20:12:49.499Z,58.10
2019-05-18T20:15:21.330Z,58.20
2019-05-18T20:17:52.871Z,58.10
2019-05-18T20:20:24.703Z,58.10
2019-05-18T20:22:56.363Z,58.10
2019-05-18T20:25:28.196Z,58.10
2019-05-18T20:28:00.021Z,58.20
2019-05-18T20:30:31.914Z,58.20
2019-05-18T20:33:04.539Z,58.10
2019-05-18T20:35:36.309Z,58.30
2019-05-18T20:38:07.896Z,58.30
2019-05-18T20:40:39.555Z,58.30
2019-05-18T20:43:11.375Z,58.40
2019-05-18T20:45:43.063Z,58.40
2019-05-18T20:48:16.913Z,58.40
2019-05-18T20:50:47.905Z,58.50
2019-05-18T20:53:19.650Z,58.50
2019-05-18T20:55:51.135Z,58.70
2019-05-18T20:58:22.871Z,58.90
2019-05-18T21:00:54.923Z,59.10
2019-05-18T21:03:26.504Z,59.20
2019-05-18T21:05:58.310Z,59.40
2019-05-18T21:08:30.023Z,59.40
2019-05-18T21:11:01.730Z,59.60
2019-05-18T21:13:33.594Z,59.60
2019-05-18T21:16:05.189Z,59.70
2019-05-18T21:18:36.822Z,59.80
2019-05-18T21:21:08.448Z,59.80
2019-05-18T21:23:40.172Z,59.80
2019-05-18T21:26:12.024Z,59.90
2019-05-18T21:28:54.697Z,60.00
2019-05-18T21:31:16.698Z,59.90
2019-05-18T21:33:48.221Z,60.10
2019-05-18T21:36:19.822Z,60.10
2019-05-18T21:38:51.153Z,60.00
2019-05-18T21:41:23.109Z,60.20
2019-05-18T21:43:54.979Z,60.10
2019-05-18T21:46:26.875Z,60.10
2019-05-18T21:48:58.307Z,60.10
2019-05-18T21:51:29.772Z,60.20
2019-05-18T21:54:01.716Z,60.10
2019-05-18T21:56:33.313Z,60.20
2019-05-18T21:59:11.902Z,60.30
2019-05-18T22:01:38.052Z,60.10
2019-05-18T22:04:10.417Z,60.30
2019-05-18T22:06:42.269Z,60.10
2019-05-18T22:09:14.008Z,60.20
2019-05-18T22:11:45.826Z,60.20
2019-05-18T22:14:17.600Z,60.20
2019-05-18T22:16:49.012Z,60.20
2019-05-18T22:19:20.490Z,60.20
2019-05-18T22:21:52.355Z,60.20
2019-05-18T22:24:24.085Z,60.00
2019-05-18T22:26:55.955Z,60.20
2019-05-18T22:29:27.650Z,60.20
2019-05-18T22:31:59.534Z,60.30
2019-05-18T22:34:31.233Z,60.30
2019-05-18T22:37:03.148Z,60.40
2019-05-18T22:39:34.863Z,60.40
2019-05-18T22:42:06.703Z,60.50
2019-05-18T22:44:38.226Z,60.40
2019-05-18T22:47:09.865Z,60.50
2019-05-18T22:49:41.698Z,61.30
2019-05-18T22:52:13.365Z,60.50
2019-05-18T22:54:45.149Z,60.50
2019-05-18T22:57:16.903Z,60.70
2019-05-18T22:59:48.674Z,60.90
2019-05-18T23:02:20.747Z,60.60
2019-05-18T23:04:52.256Z,60.70
2019-05-18T23:07:26.394Z,60.70
2019-05-18T23:09:58.143Z,60.80
2019-05-18T23:12:30.324Z,61.00
2019-05-18T23:15:02.189Z,61.10
2019-05-18T23:17:33.894Z,61.10
2019-05-18T23:20:05.463Z,61.10
2019-05-18T23:22:37.479Z,61.10
2019-05-18T23:25:09.763Z,61.10
2019-05-18T23:27:42.095Z,61.10
2019-05-18T23:30:49.982Z,61.10
2019-05-18T23:33:21.919Z,60.90
2019-05-18T23:35:53.551Z,61.10
2019-05-18T23:38:25.432Z,60.90
2019-05-18T23:40:56.969Z,61.00
2019-05-18T23:43:28.432Z,61.10
2019-05-18T23:46:00.246Z,60.90
2019-05-18T23:48:31.945Z,61.10
2019-05-18T23:51:03.927Z,60.90
2019-05-18T23:53:35.744Z,60.90
2019-05-18T23:56:07.437Z,61.00
2019-05-18T23:58:39.311Z,60.70
